sensor_id;sensor_type;location;lat;lon;timestamp;pressure;altitude;pressure_sealevel;temperature
15360;BMP280;7779;49.596;11.070;2023-06-26T00:01:17;98221.25;;;21.10
15360;BMP280;7779;49.596;11.070;2023-06-26T00:03:47;98228.84;;;21.05
15360;BMP280;7779;49.596;11.070;2023-06-26T00:06:13;98225.38;;;21.00
15360;BMP280;7779;49.596;11.070;2023-06-26T00:08:39;98227.00;;;20.95
15360;BMP280;7779;49.596;11.070;2023-06-26T00:11:05;98226.94;;;20.91
15360;BMP280;7779;49.596;11.070;2023-06-26T00:13:31;98227.72;;;20.85
15360;BMP280;7779;49.596;11.070;2023-06-26T00:15:57;98223.38;;;20.81
15360;BMP280;7779;49.596;11.070;2023-06-26T00:18:22;98225.91;;;20.78
15360;BMP280;7779;49.596;11.070;2023-06-26T00:20:49;98219.03;;;20.73
15360;BMP280;7779;49.596;11.070;2023-06-26T00:23:17;98225.78;;;20.71
15360;BMP280;7779;49.596;11.070;2023-06-26T00:25:43;98229.09;;;20.67
15360;BMP280;7779;49.596;11.070;2023-06-26T00:28:09;98222.25;;;20.63
15360;BMP280;7779;49.596;11.070;2023-06-26T00:30:37;98223.91;;;20.61
15360;BMP280;7779;49.596;11.070;2023-06-26T00:33:03;98222.16;;;20.57
15360;BMP280;7779;49.596;11.070;2023-06-26T00:35:30;98231.44;;;20.55
15360;BMP280;7779;49.596;11.070;2023-06-26T00:37:56;98228.00;;;20.52
15360;BMP280;7779;49.596;11.070;2023-06-26T00:40:22;98232.19;;;20.48
15360;BMP280;7779;49.596;11.070;2023-06-26T00:42:48;98227.03;;;20.45
15360;BMP280;7779;49.596;11.070;2023-06-26T00:45:14;98226.13;;;20.40
15360;BMP280;7779;49.596;11.070;2023-06-26T00:47:39;98226.09;;;20.39
15360;BMP280;7779;49.596;11.070;2023-06-26T00:50:06;98227.75;;;20.37
15360;BMP280;7779;49.596;11.070;2023-06-26T00:52:32;98218.38;;;20.33
15360;BMP280;7779;49.596;11.070;2023-06-26T00:54:59;98226.75;;;20.29
15360;BMP280;7779;49.596;11.070;2023-06-26T00:57:25;98223.34;;;20.27
15360;BMP280;7779;49.596;11.070;2023-06-26T00:59:53;98224.97;;;20.24
15360;BMP280;7779;49.596;11.070;2023-06-26T01:02:20;98224.94;;;20.21
15360;BMP280;7779;49.596;11.070;2023-06-26T01:04:51;98225.72;;;20.18
15360;BMP280;7779;49.596;11.070;2023-06-26T01:07:19;98224.00;;;20.16
15360;BMP280;7779;49.596;11.070;2023-06-26T01:09:49;98236.66;;;20.13
15360;BMP280;7779;49.596;11.070;2023-06-26T01:12:15;98236.63;;;20.10
15360;BMP280;7779;49.596;11.070;2023-06-26T01:14:41;98229.78;;;20.07
15360;BMP280;7779;49.596;11.070;2023-06-26T01:17:09;98233.97;;;20.05
15360;BMP280;7779;49.596;11.070;2023-06-26T01:19:40;98233.94;;;20.02
15360;BMP280;7779;49.596;11.070;2023-06-26T01:22:39;98235.56;;;20.00
15360;BMP280;7779;49.596;11.070;2023-06-26T01:25:37;98234.66;;;19.96
15360;BMP280;7779;49.596;11.070;2023-06-26T01:28:07;98226.09;;;19.91
15360;BMP280;7779;49.596;11.070;2023-06-26T01:30:37;98229.44;;;19.90
15360;BMP280;7779;49.596;11.070;2023-06-26T01:33:04;98223.44;;;19.86
15360;BMP280;7779;49.596;11.070;2023-06-26T01:35:31;98224.22;;;19.82
15360;BMP280;7779;49.596;11.070;2023-06-26T01:38:15;98227.56;;;19.81
15360;BMP280;7779;49.596;11.070;2023-06-26T01:40:41;98219.81;;;19.75
15360;BMP280;7779;49.596;11.070;2023-06-26T01:43:25;98220.63;;;19.73
15360;BMP280;7779;49.596;11.070;2023-06-26T01:46:17;98221.34;;;19.66
15360;BMP280;7779;49.596;11.070;2023-06-26T01:48:55;98217.00;;;19.60
15360;BMP280;7779;49.596;11.070;2023-06-26T01:51:41;98221.97;;;19.55
15360;BMP280;7779;49.596;11.070;2023-06-26T01:54:16;98231.13;;;19.48
15360;BMP280;7779;49.596;11.070;2023-06-26T01:56:45;98229.34;;;19.43
15360;BMP280;7779;49.596;11.070;2023-06-26T01:59:15;98219.91;;;19.37
15360;BMP280;7779;49.596;11.070;2023-06-26T02:01:42;98224.91;;;19.33
15360;BMP280;7779;49.596;11.070;2023-06-26T02:04:08;98224.84;;;19.30
15360;BMP280;7779;49.596;11.070;2023-06-26T02:06:33;98223.03;;;19.24
15360;BMP280;7779;49.596;11.070;2023-06-26T02:08:59;98219.56;;;19.21
15360;BMP280;7779;49.596;11.070;2023-06-26T02:11:26;98226.25;;;19.17
15360;BMP280;7779;49.596;11.070;2023-06-26T02:13:51;98221.94;;;19.14
15360;BMP280;7779;49.596;11.070;2023-06-26T02:16:17;98224.41;;;19.11
15360;BMP280;7779;49.596;11.070;2023-06-26T02:18:43;98222.66;;;19.07
15360;BMP280;7779;49.596;11.070;2023-06-26T02:21:09;98217.53;;;19.04
15360;BMP280;7779;49.596;11.070;2023-06-26T02:23:35;98223.38;;;19.01
15360;BMP280;7779;49.596;11.070;2023-06-26T02:26:01;98231.78;;;18.99
15360;BMP280;7779;49.596;11.070;2023-06-26T02:28:26;98226.59;;;18.96
15360;BMP280;7779;49.596;11.070;2023-06-26T02:30:52;98224.81;;;18.92
15360;BMP280;7779;49.596;11.070;2023-06-26T02:33:18;98223.91;;;18.88
15360;BMP280;7779;49.596;11.070;2023-06-26T02:35:47;98233.13;;;18.85
15360;BMP280;7779;49.596;11.070;2023-06-26T02:38:13;98227.13;;;18.81
15360;BMP280;7779;49.596;11.070;2023-06-26T02:40:39;98226.19;;;18.78
15360;BMP280;7779;49.596;11.070;2023-06-26T02:43:06;98229.50;;;18.74
15360;BMP280;7779;49.596;11.070;2023-06-26T02:45:32;98226.91;;;18.71
15360;BMP280;7779;49.596;11.070;2023-06-26T02:47:58;98232.72;;;18.67
15360;BMP280;7779;49.596;11.070;2023-06-26T02:50:24;98235.19;;;18.64
15360;BMP280;7779;49.596;11.070;2023-06-26T02:53:08;98235.03;;;18.58
15360;BMP280;7779;49.596;11.070;2023-06-26T02:55:36;98226.50;;;18.55
15360;BMP280;7779;49.596;11.070;2023-06-26T02:58:01;98228.13;;;18.51
15360;BMP280;7779;49.596;11.070;2023-06-26T03:00:28;98227.16;;;18.46
15360;BMP280;7779;49.596;11.070;2023-06-26T03:02:56;98227.97;;;18.45
15360;BMP280;7779;49.596;11.070;2023-06-26T03:05:22;98216.88;;;18.40
15360;BMP280;7779;49.596;11.070;2023-06-26T03:07:49;98212.56;;;18.38
15360;BMP280;7779;49.596;11.070;2023-06-26T03:10:16;98220.97;;;18.36
15360;BMP280;7779;49.596;11.070;2023-06-26T03:12:43;98219.19;;;18.33
15360;BMP280;7779;49.596;11.070;2023-06-26T03:15:09;98221.72;;;18.32
15360;BMP280;7779;49.596;11.070;2023-06-26T03:17:37;98214.06;;;18.30
15360;BMP280;7779;49.596;11.070;2023-06-26T03:20:07;98221.63;;;18.29
15360;BMP280;7779;49.596;11.070;2023-06-26T03:22:54;98222.44;;;18.28
15360;BMP280;7779;49.596;11.070;2023-06-26T03:25:21;98217.38;;;18.28
15360;BMP280;7779;49.596;11.070;2023-06-26T03:27:48;98224.97;;;18.28
15360;BMP280;7779;49.596;11.070;2023-06-26T03:30:15;98217.38;;;18.28
15360;BMP280;7779;49.596;11.070;2023-06-26T03:32:43;98221.63;;;18.29
15360;BMP280;7779;49.596;11.070;2023-06-26T03:35:08;98213.19;;;18.30
15360;BMP280;7779;49.596;11.070;2023-06-26T03:37:35;98209.00;;;18.30
15360;BMP280;7779;49.596;11.070;2023-06-26T03:40:01;98219.16;;;18.30
15360;BMP280;7779;49.596;11.070;2023-06-26T03:42:26;98215.78;;;18.31
15360;BMP280;7779;49.596;11.070;2023-06-26T03:44:53;98213.28;;;18.33
15360;BMP280;7779;49.596;11.070;2023-06-26T03:47:19;98220.22;;;18.39
15360;BMP280;7779;49.596;11.070;2023-06-26T03:49:45;98218.88;;;18.53
15360;BMP280;7779;49.596;11.070;2023-06-26T03:52:10;98222.72;;;18.73
15360;BMP280;7779;49.596;11.070;2023-06-26T03:54:38;98213.09;;;18.97
15360;BMP280;7779;49.596;11.070;2023-06-26T03:57:04;98214.28;;;19.12
15360;BMP280;7779;49.596;11.070;2023-06-26T03:59:30;98208.63;;;19.25
15360;BMP280;7779;49.596;11.070;2023-06-26T04:01:56;98215.59;;;19.33
15360;BMP280;7779;49.596;11.070;2023-06-26T04:04:22;98214.91;;;19.40
15360;BMP280;7779;49.596;11.070;2023-06-26T04:06:47;98215.84;;;19.45
15360;BMP280;7779;49.596;11.070;2023-06-26T04:09:13;98218.47;;;19.50
15360;BMP280;7779;49.596;11.070;2023-06-26T04:11:39;98216.03;;;19.54
15360;BMP280;7779;49.596;11.070;2023-06-26T04:14:05;98209.28;;;19.56
15360;BMP280;7779;49.596;11.070;2023-06-26T04:16:30;98201.72;;;19.59
15360;BMP280;7779;49.596;11.070;2023-06-26T04:18:56;98205.16;;;19.62
15360;BMP280;7779;49.596;11.070;2023-06-26T04:21:23;98204.38;;;19.65
15360;BMP280;7779;49.596;11.070;2023-06-26T04:23:50;98194.25;;;19.68
15360;BMP280;7779;49.596;11.070;2023-06-26T04:26:16;98203.69;;;19.72
15360;BMP280;7779;49.596;11.070;2023-06-26T04:28:43;98204.59;;;19.77
15360;BMP280;7779;49.596;11.070;2023-06-26T04:31:09;98209.88;;;19.86
15360;BMP280;7779;49.596;11.070;2023-06-26T04:33:35;98213.59;;;20.02
15360;BMP280;7779;49.596;11.070;2023-06-26T04:36:06;98210.75;;;20.33
15360;BMP280;7779;49.596;11.070;2023-06-26T04:38:32;98208.78;;;20.70
15360;BMP280;7779;49.596;11.070;2023-06-26T04:40:59;98203.41;;;21.08
15360;BMP280;7779;49.596;11.070;2023-06-26T04:43:25;98208.88;;;21.38
15360;BMP280;7779;49.596;11.070;2023-06-26T04:45:51;98200.69;;;21.62
15360;BMP280;7779;49.596;11.070;2023-06-26T04:48:17;98187.34;;;21.83
15360;BMP280;7779;49.596;11.070;2023-06-26T04:50:42;98186.69;;;22.03
15360;BMP280;7779;49.596;11.070;2023-06-26T04:53:08;98187.75;;;22.24
15360;BMP280;7779;49.596;11.070;2023-06-26T04:55:35;98198.13;;;22.46
15360;BMP280;7779;49.596;11.070;2023-06-26T04:58:01;98189.81;;;22.70
15360;BMP280;7779;49.596;11.070;2023-06-26T05:00:26;98189.97;;;22.90
15360;BMP280;7779;49.596;11.070;2023-06-26T05:02:52;98186.66;;;23.13
15360;BMP280;7779;49.596;11.070;2023-06-26T05:05:27;98185.09;;;23.38
15360;BMP280;7779;49.596;11.070;2023-06-26T05:07:54;98188.63;;;23.59
15360;BMP280;7779;49.596;11.070;2023-06-26T05:10:20;98187.78;;;23.75
15360;BMP280;7779;49.596;11.070;2023-06-26T05:12:46;98188.69;;;23.89
15360;BMP280;7779;49.596;11.070;2023-06-26T05:15:12;98181.88;;;24.02
15360;BMP280;7779;49.596;11.070;2023-06-26T05:17:37;98177.63;;;24.15
15360;BMP280;7779;49.596;11.070;2023-06-26T05:20:03;98182.78;;;24.34
15360;BMP280;7779;49.596;11.070;2023-06-26T05:22:32;98181.91;;;24.59
15360;BMP280;7779;49.596;11.070;2023-06-26T05:25:00;98182.72;;;24.86
15360;BMP280;7779;49.596;11.070;2023-06-26T05:27:27;98170.72;;;25.12
15360;BMP280;7779;49.596;11.070;2023-06-26T05:29:54;98180.91;;;25.35
15360;BMP280;7779;49.596;11.070;2023-06-26T05:32:20;98161.13;;;25.56
15360;BMP280;7779;49.596;11.070;2023-06-26T05:34:48;98160.19;;;25.77
15360;BMP280;7779;49.596;11.070;2023-06-26T05:37:21;98165.22;;;25.94
15360;BMP280;7779;49.596;11.070;2023-06-26T05:39:48;98159.97;;;26.08
15360;BMP280;7779;49.596;11.070;2023-06-26T05:42:14;98162.47;;;26.23
15360;BMP280;7779;49.596;11.070;2023-06-26T05:44:40;98161.53;;;26.33
15360;BMP280;7779;49.596;11.070;2023-06-26T05:47:06;98156.34;;;26.40
15360;BMP280;7779;49.596;11.070;2023-06-26T05:49:33;98158.00;;;26.45
15360;BMP280;7779;49.596;11.070;2023-06-26T05:51:59;98159.59;;;26.55
15360;BMP280;7779;49.596;11.070;2023-06-26T05:54:25;98155.25;;;26.65
15360;BMP280;7779;49.596;11.070;2023-06-26T05:56:57;98147.41;;;26.78
15360;BMP280;7779;49.596;11.070;2023-06-26T05:59:26;98146.41;;;26.94
15360;BMP280;7779;49.596;11.070;2023-06-26T06:01:52;98145.34;;;27.10
15360;BMP280;7779;49.596;11.070;2023-06-26T06:04:18;98137.41;;;27.27
15360;BMP280;7779;49.596;11.070;2023-06-26T06:06:44;98138.94;;;27.45
15360;BMP280;7779;49.596;11.070;2023-06-26T06:09:10;98132.72;;;27.60
15360;BMP280;7779;49.596;11.070;2023-06-26T06:11:35;98134.16;;;27.79
15360;BMP280;7779;49.596;11.070;2023-06-26T06:14:01;98130.50;;;27.95
15360;BMP280;7779;49.596;11.070;2023-06-26T06:16:27;98129.44;;;28.09
15360;BMP280;7779;49.596;11.070;2023-06-26T06:18:56;98132.59;;;28.26
15360;BMP280;7779;49.596;11.070;2023-06-26T06:21:21;98128.88;;;28.42
15360;BMP280;7779;49.596;11.070;2023-06-26T06:23:47;98134.59;;;28.60
15360;BMP280;7779;49.596;11.070;2023-06-26T06:26:13;98138.59;;;28.77
15360;BMP280;7779;49.596;11.070;2023-06-26T06:28:39;98132.19;;;28.96
15360;BMP280;7779;49.596;11.070;2023-06-26T06:31:05;98137.81;;;29.16
15360;BMP280;7779;49.596;11.070;2023-06-26T06:33:31;98128.88;;;29.35
15360;BMP280;7779;49.596;11.070;2023-06-26T06:35:57;98128.41;;;29.55
15360;BMP280;7779;49.596;11.070;2023-06-26T06:38:22;98134.03;;;29.74
15360;BMP280;7779;49.596;11.070;2023-06-26T06:40:48;98127.63;;;29.91
15360;BMP280;7779;49.596;11.070;2023-06-26T06:43:14;98128.06;;;30.08
15360;BMP280;7779;49.596;11.070;2023-06-26T06:45:41;98122.50;;;30.24
15360;BMP280;7779;49.596;11.070;2023-06-26T06:48:06;98123.84;;;30.40
15360;BMP280;7779;49.596;11.070;2023-06-26T06:50:32;98114.88;;;30.53
15360;BMP280;7779;49.596;11.070;2023-06-26T06:52:58;98114.56;;;30.66
15360;BMP280;7779;49.596;11.070;2023-06-26T06:55:24;98104.66;;;30.80
15360;BMP280;7779;49.596;11.070;2023-06-26T06:57:51;98110.41;;;30.92
15360;BMP280;7779;49.596;11.070;2023-06-26T07:00:17;98110.94;;;31.03
15360;BMP280;7779;49.596;11.070;2023-06-26T07:02:45;98115.00;;;31.13
15360;BMP280;7779;49.596;11.070;2023-06-26T07:05:12;98111.22;;;31.23
15360;BMP280;7779;49.596;11.070;2023-06-26T07:07:38;98112.72;;;31.31
15360;BMP280;7779;49.596;11.070;2023-06-26T07:10:10;98109.09;;;31.38
15360;BMP280;7779;49.596;11.070;2023-06-26T07:12:37;98102.03;;;31.43
15360;BMP280;7779;49.596;11.070;2023-06-26T07:15:05;98107.84;;;31.51
15360;BMP280;7779;49.596;11.070;2023-06-26T07:17:32;98099.84;;;31.58
15360;BMP280;7779;49.596;11.070;2023-06-26T07:19:59;98098.72;;;31.67
15360;BMP280;7779;49.596;11.070;2023-06-26T07:22:25;98095.84;;;31.76
15360;BMP280;7779;49.596;11.070;2023-06-26T07:24:51;98092.91;;;31.88
15360;BMP280;7779;49.596;11.070;2023-06-26T07:27:17;98092.56;;;31.98
15360;BMP280;7779;49.596;11.070;2023-06-26T07:29:46;98087.94;;;32.07
15360;BMP280;7779;49.596;11.070;2023-06-26T07:32:12;98085.03;;;32.16
15360;BMP280;7779;49.596;11.070;2023-06-26T07:34:38;98086.63;;;32.20
15360;BMP280;7779;49.596;11.070;2023-06-26T07:37:04;98083.03;;;32.24
15360;BMP280;7779;49.596;11.070;2023-06-26T07:39:30;98089.84;;;32.28
15360;BMP280;7779;49.596;11.070;2023-06-26T07:41:56;98088.00;;;32.31
15360;BMP280;7779;49.596;11.070;2023-06-26T07:44:23;98088.78;;;32.33
15360;BMP280;7779;49.596;11.070;2023-06-26T07:46:49;98088.69;;;32.36
15360;BMP280;7779;49.596;11.070;2023-06-26T07:49:15;98088.59;;;32.39
15360;BMP280;7779;49.596;11.070;2023-06-26T07:51:41;98087.59;;;32.43
15360;BMP280;7779;49.596;11.070;2023-06-26T07:54:06;98077.09;;;32.48
15360;BMP280;7779;49.596;11.070;2023-06-26T07:56:55;98080.34;;;32.53
15360;BMP280;7779;49.596;11.070;2023-06-26T07:59:22;98075.00;;;32.57
15360;BMP280;7779;49.596;11.070;2023-06-26T08:01:50;98083.41;;;32.64
15360;BMP280;7779;49.596;11.070;2023-06-26T08:04:19;98072.88;;;32.68
15360;BMP280;7779;49.596;11.070;2023-06-26T08:06:48;98064.94;;;32.72
15360;BMP280;7779;49.596;11.070;2023-06-26T08:09:14;98068.28;;;32.76
15360;BMP280;7779;49.596;11.070;2023-06-26T08:11:39;98066.41;;;32.79
15360;BMP280;7779;49.596;11.070;2023-06-26T08:14:05;98063.59;;;32.85
15360;BMP280;7779;49.596;11.070;2023-06-26T08:16:31;98061.72;;;32.90
15360;BMP280;7779;49.596;11.070;2023-06-26T08:18:57;98070.16;;;32.97
15360;BMP280;7779;49.596;11.070;2023-06-26T08:21:22;98059.53;;;33.03
15360;BMP280;7779;49.596;11.070;2023-06-26T08:23:48;98057.44;;;33.12
15360;BMP280;7779;49.596;11.070;2023-06-26T08:26:14;98064.09;;;33.19
15360;BMP280;7779;49.596;11.070;2023-06-26T08:28:39;98062.13;;;33.25
15360;BMP280;7779;49.596;11.070;2023-06-26T08:31:05;98056.66;;;33.33
15360;BMP280;7779;49.596;11.070;2023-06-26T08:33:31;98056.34;;;33.42
15360;BMP280;7779;49.596;11.070;2023-06-26T08:35:56;98047.41;;;33.49
15360;BMP280;7779;49.596;11.070;2023-06-26T08:38:22;98048.91;;;33.54
15360;BMP280;7779;49.596;11.070;2023-06-26T08:40:48;98044.44;;;33.57
15360;BMP280;7779;49.596;11.070;2023-06-26T08:43:14;98045.97;;;33.63
15360;BMP280;7779;49.596;11.070;2023-06-26T08:45:40;98044.94;;;33.67
15360;BMP280;7779;49.596;11.070;2023-06-26T08:48:09;98054.25;;;33.72
15360;BMP280;7779;49.596;11.070;2023-06-26T08:50:38;98048.84;;;33.77
15360;BMP280;7779;49.596;11.070;2023-06-26T08:56:05;98053.72;;;33.86
15360;BMP280;7779;49.596;11.070;2023-06-26T08:58:32;98041.38;;;33.91
15360;BMP280;7779;49.596;11.070;2023-06-26T09:01:00;98043.78;;;33.95
15360;BMP280;7779;49.596;11.070;2023-06-26T09:03:27;98039.25;;;34.00
15360;BMP280;7779;49.596;11.070;2023-06-26T09:05:52;98044.28;;;34.04
15360;BMP280;7779;49.596;11.070;2023-06-26T09:08:18;98042.31;;;34.09
15360;BMP280;7779;49.596;11.070;2023-06-26T09:10:44;98040.44;;;34.13
15360;BMP280;7779;49.596;11.070;2023-06-26T09:13:10;98041.09;;;34.18
15360;BMP280;7779;49.596;11.070;2023-06-26T09:15:43;98045.19;;;34.23
15360;BMP280;7779;49.596;11.070;2023-06-26T09:18:09;98037.19;;;34.28
15360;BMP280;7779;49.596;11.070;2023-06-26T09:20:35;98032.69;;;34.32
15360;BMP280;7779;49.596;11.070;2023-06-26T09:23:01;98036.00;;;34.36
15360;BMP280;7779;49.596;11.070;2023-06-26T09:25:28;98035.81;;;34.40
15360;BMP280;7779;49.596;11.070;2023-06-26T09:27:55;98029.56;;;34.44
15360;BMP280;7779;49.596;11.070;2023-06-26T09:30:21;98026.75;;;34.49
15360;BMP280;7779;49.596;11.070;2023-06-26T09:32:48;98020.59;;;34.51
15360;BMP280;7779;49.596;11.070;2023-06-26T09:35:16;98021.16;;;34.58
15360;BMP280;7779;49.596;11.070;2023-06-26T09:37:43;98019.22;;;34.63
15360;BMP280;7779;49.596;11.070;2023-06-26T09:40:09;98019.81;;;34.69
15360;BMP280;7779;49.596;11.070;2023-06-26T09:42:35;98027.28;;;34.76
15360;BMP280;7779;49.596;11.070;2023-06-26T09:45:02;98020.97;;;34.82
15360;BMP280;7779;49.596;11.070;2023-06-26T09:47:31;98012.81;;;34.89
15360;BMP280;7779;49.596;11.070;2023-06-26T09:49:57;98023.00;;;34.94
15360;BMP280;7779;49.596;11.070;2023-06-26T09:52:27;98011.47;;;34.99
15360;BMP280;7779;49.596;11.070;2023-06-26T09:55:08;98009.44;;;35.06
15360;BMP280;7779;49.596;11.070;2023-06-26T09:57:35;98008.47;;;35.08
15360;BMP280;7779;49.596;11.070;2023-06-26T10:00:02;98005.78;;;35.10
15360;BMP280;7779;49.596;11.070;2023-06-26T10:02:39;98003.06;;;35.12
15360;BMP280;7779;49.596;11.070;2023-06-26T10:05:05;98002.13;;;35.13
15360;BMP280;7779;49.596;11.070;2023-06-26T10:07:31;98007.19;;;35.16
15360;BMP280;7779;49.596;11.070;2023-06-26T10:09:57;98001.88;;;35.19
15360;BMP280;7779;49.596;11.070;2023-06-26T10:12:31;98001.69;;;35.22
15360;BMP280;7779;49.596;11.070;2023-06-26T10:14:58;97994.66;;;35.24
15360;BMP280;7779;49.596;11.070;2023-06-26T10:17:32;97994.50;;;35.29
15360;BMP280;7779;49.596;11.070;2023-06-26T10:20:03;97990.00;;;35.32
15360;BMP280;7779;49.596;11.070;2023-06-26T10:22:33;97985.38;;;35.37
15360;BMP280;7779;49.596;11.070;2023-06-26T10:25:06;97990.41;;;35.42
15360;BMP280;7779;49.596;11.070;2023-06-26T10:27:47;97978.06;;;35.45
15360;BMP280;7779;49.596;11.070;2023-06-26T10:30:20;97978.91;;;35.46
15360;BMP280;7779;49.596;11.070;2023-06-26T10:32:48;97979.59;;;35.49
15360;BMP280;7779;49.596;11.070;2023-06-26T10:35:14;97965.44;;;35.54
15360;BMP280;7779;49.596;11.070;2023-06-26T10:37:45;97972.09;;;35.60
15360;BMP280;7779;49.596;11.070;2023-06-26T10:40:17;97981.41;;;35.65
15360;BMP280;7779;49.596;11.070;2023-06-26T10:42:46;97982.09;;;35.69
15360;BMP280;7779;49.596;11.070;2023-06-26T10:45:19;97984.50;;;35.73
15360;BMP280;7779;49.596;11.070;2023-06-26T10:47:52;97971.25;;;35.78
15360;BMP280;7779;49.596;11.070;2023-06-26T10:50:28;97982.38;;;35.81
15360;BMP280;7779;49.596;11.070;2023-06-26T10:56:02;97978.75;;;35.84
15360;BMP280;7779;49.596;11.070;2023-06-26T11:03:38;97967.75;;;35.95
15360;BMP280;7779;49.596;11.070;2023-06-26T11:06:19;97973.41;;;36.03
15360;BMP280;7779;49.596;11.070;2023-06-26T11:08:52;97970.72;;;36.05
15360;BMP280;7779;49.596;11.070;2023-06-26T11:14:17;97970.03;;;36.01
15360;BMP280;7779;49.596;11.070;2023-06-26T11:16:43;97978.00;;;35.98
15360;BMP280;7779;49.596;11.070;2023-06-26T11:19:14;97966.09;;;35.93
15360;BMP280;7779;49.596;11.070;2023-06-26T11:21:40;97976.91;;;35.86
15360;BMP280;7779;49.596;11.070;2023-06-26T11:24:07;97968.50;;;35.81
15360;BMP280;7779;49.596;11.070;2023-06-26T11:26:42;97975.63;;;35.77
15360;BMP280;7779;49.596;11.070;2023-06-26T11:29:09;97971.41;;;35.75
15360;BMP280;7779;49.596;11.070;2023-06-26T11:31:39;97973.22;;;35.73
15360;BMP280;7779;49.596;11.070;2023-06-26T11:34:08;97960.41;;;35.68
15360;BMP280;7779;49.596;11.070;2023-06-26T11:36:39;97963.91;;;35.67
15360;BMP280;7779;49.596;11.070;2023-06-26T11:39:08;97963.22;;;35.64
15360;BMP280;7779;49.596;11.070;2023-06-26T11:41:37;97961.56;;;35.63
15360;BMP280;7779;49.596;11.070;2023-06-26T11:44:09;97958.00;;;35.64
15360;BMP280;7779;49.596;11.070;2023-06-26T11:46:37;97952.78;;;35.64
15360;BMP280;7779;49.596;11.070;2023-06-26T11:49:04;97958.00;;;35.64
15360;BMP280;7779;49.596;11.070;2023-06-26T11:51:30;97956.94;;;35.68
15360;BMP280;7779;49.596;11.070;2023-06-26T11:53:56;97957.72;;;35.70
15360;BMP280;7779;49.596;11.070;2023-06-26T11:56:22;97952.66;;;35.67
15360;BMP280;7779;49.596;11.070;2023-06-26T11:59:10;97953.50;;;35.67
15360;BMP280;7779;49.596;11.070;2023-06-26T12:01:42;97944.06;;;35.65
15360;BMP280;7779;49.596;11.070;2023-06-26T12:04:12;97940.53;;;35.66
15360;BMP280;7779;49.596;11.070;2023-06-26T12:06:42;97937.00;;;35.67
15360;BMP280;7779;49.596;11.070;2023-06-26T12:09:10;97946.50;;;35.68
15360;BMP280;7779;49.596;11.070;2023-06-26T12:11:40;97944.78;;;35.68
15360;BMP280;7779;49.596;11.070;2023-06-26T12:14:07;97937.78;;;35.69
15360;BMP280;7779;49.596;11.070;2023-06-26T12:16:36;97944.69;;;35.70
15360;BMP280;7779;49.596;11.070;2023-06-26T12:19:05;97922.06;;;35.70
15360;BMP280;7779;49.596;11.070;2023-06-26T12:21:45;97935.84;;;35.74
15360;BMP280;7779;49.596;11.070;2023-06-26T12:24:17;97936.59;;;35.76
15360;BMP280;7779;49.596;11.070;2023-06-26T12:26:54;97946.84;;;35.79
15360;BMP280;7779;49.596;11.070;2023-06-26T12:29:31;97928.53;;;35.80
15360;BMP280;7779;49.596;11.070;2023-06-26T12:31:58;97930.31;;;35.80
15360;BMP280;7779;49.596;11.070;2023-06-26T12:34:32;97926.56;;;35.85
15360;BMP280;7779;49.596;11.070;2023-06-26T12:37:11;97926.31;;;35.90
15360;BMP280;7779;49.596;11.070;2023-06-26T12:39:57;97933.00;;;35.95
15360;BMP280;7779;49.596;11.070;2023-06-26T12:42:33;97927.28;;;36.04
15360;BMP280;7779;49.596;11.070;2023-06-26T12:44:59;97918.25;;;36.11
15360;BMP280;7779;49.596;11.070;2023-06-26T12:47:29;97909.25;;;36.16
15360;BMP280;7779;49.596;11.070;2023-06-26T12:49:56;97917.88;;;36.18
15360;BMP280;7779;49.596;11.070;2023-06-26T12:52:23;97913.47;;;36.20
15360;BMP280;7779;49.596;11.070;2023-06-26T12:54:54;97917.50;;;36.26
15360;BMP280;7779;49.596;11.070;2023-06-26T12:57:21;97919.19;;;36.27
15360;BMP280;7779;49.596;11.070;2023-06-26T12:59:47;97919.72;;;36.33
15360;BMP280;7779;49.596;11.070;2023-06-26T13:02:13;97913.16;;;36.41
15360;BMP280;7779;49.596;11.070;2023-06-26T13:04:39;97913.69;;;36.48
15360;BMP280;7779;49.596;11.070;2023-06-26T13:07:06;97915.06;;;36.55
15360;BMP280;7779;49.596;11.070;2023-06-26T13:09:33;97897.53;;;36.57
15360;BMP280;7779;49.596;11.070;2023-06-26T13:12:00;97910.53;;;36.58
15360;BMP280;7779;49.596;11.070;2023-06-26T13:14:25;97896.72;;;36.56
15360;BMP280;7779;49.596;11.070;2023-06-26T13:16:51;97886.34;;;36.55
15360;BMP280;7779;49.596;11.070;2023-06-26T13:19:17;97886.41;;;36.53
15360;BMP280;7779;49.596;11.070;2023-06-26T13:21:43;97881.22;;;36.53
15360;BMP280;7779;49.596;11.070;2023-06-26T13:24:09;97890.69;;;36.54
15360;BMP280;7779;49.596;11.070;2023-06-26T13:26:35;97888.28;;;36.51
15360;BMP280;7779;49.596;11.070;2023-06-26T13:29:02;97887.19;;;36.55
15360;BMP280;7779;49.596;11.070;2023-06-26T13:31:28;97882.56;;;36.60
15360;BMP280;7779;49.596;11.070;2023-06-26T13:33:56;97887.47;;;36.66
15360;BMP280;7779;49.596;11.070;2023-06-26T13:36:22;97877.72;;;36.70
15360;BMP280;7779;49.596;11.070;2023-06-26T13:38:48;97867.00;;;36.74
15360;BMP280;7779;49.596;11.070;2023-06-26T13:41:24;97870.16;;;36.80
15360;BMP280;7779;49.596;11.070;2023-06-26T13:43:50;97867.78;;;36.91
15360;BMP280;7779;49.596;11.070;2023-06-26T13:46:17;97870.78;;;36.99
15360;BMP280;7779;49.596;11.070;2023-06-26T13:48:46;97880.78;;;37.08
15360;BMP280;7779;49.596;11.070;2023-06-26T13:51:12;97872.69;;;37.13
15360;BMP280;7779;49.596;11.070;2023-06-26T13:53:38;97878.41;;;37.19
15360;BMP280;7779;49.596;11.070;2023-06-26T13:56:04;97876.38;;;37.24
15360;BMP280;7779;49.596;11.070;2023-06-26T13:58:30;97860.53;;;37.27
15360;BMP280;7779;49.596;11.070;2023-06-26T14:00:58;97867.44;;;37.28
15360;BMP280;7779;49.596;11.070;2023-06-26T14:03:26;97869.88;;;37.31
15360;BMP280;7779;49.596;11.070;2023-06-26T14:05:53;97867.28;;;37.31
15360;BMP280;7779;49.596;11.070;2023-06-26T14:08:18;97859.72;;;37.26
15360;BMP280;7779;49.596;11.070;2023-06-26T14:10:44;97847.72;;;37.22
15360;BMP280;7779;49.596;11.070;2023-06-26T14:13:10;97860.97;;;37.19
15360;BMP280;7779;49.596;11.070;2023-06-26T14:15:40;97870.16;;;37.11
15360;BMP280;7779;49.596;11.070;2023-06-26T14:18:06;97867.88;;;37.05
15360;BMP280;7779;49.596;11.070;2023-06-26T14:20:33;97865.41;;;37.02
15360;BMP280;7779;49.596;11.070;2023-06-26T14:22:59;97856.81;;;37.00
15360;BMP280;7779;49.596;11.070;2023-06-26T14:25:25;97858.69;;;36.98
15360;BMP280;7779;49.596;11.070;2023-06-26T14:27:55;97843.44;;;36.91